Time;durP1;ratioP1;P1;durP2;ratioP2;P2;SDS_P1;SDS_P2;PMS_P1;PMS_P2;Temp;Humidity;BMP_temperature;BMP_pressure;BME280_temperature;BME280_humidity;BME280_pressure;Samples;Min_cycle;Max_cycle;Signal;HPM_P1;HPM_P2
2022/06/04 00:02:04;;;;;;;2.95;2.47;;;17.90;98.90;;;;;;4998499;28;20202;-61
2022/06/04 00:04:30;;;;;;;8.20;2.47;;;17.80;99.10;;;;;;4997099;28;20036;-60
2022/06/04 00:06:56;;;;;;;8.35;2.60;;;17.80;99.40;;;;;;4999444;28;20026;-61
2022/06/04 00:09:26;;;;;;;3.55;2.53;;;17.70;99.60;;;;;;4996754;28;20022;-61
2022/06/04 00:17:21;;;;;;;3.67;2.92;;;17.70;99.90;;;;;;4998674;28;20640;-60
2022/06/04 00:19:47;;;;;;;4.50;2.47;;;17.60;99.90;;;;;;4996926;28;20026;-60
2022/06/04 00:22:13;;;;;;;3.72;2.60;;;17.60;99.90;;;;;;4995513;28;20026;-61
2022/06/04 00:24:42;;;;;;;4.10;2.95;;;17.60;99.90;;;;;;5005740;28;20057;-61
2022/06/04 00:27:17;;;;;;;3.60;2.17;;;17.50;99.90;;;;;;5008199;28;20053;-60
2022/06/04 00:29:43;;;;;;;5.70;2.70;;;17.50;99.90;;;;;;4999856;28;20121;-61
2022/06/04 00:32:10;;;;;;;11.20;2.80;;;17.40;99.90;;;;;;5000830;28;20100;-61
2022/06/04 00:34:35;;;;;;;2.90;2.25;;;17.40;99.90;;;;;;5003429;28;20028;-60
2022/06/04 00:37:01;;;;;;;4.53;3.08;;;17.40;99.90;;;;;;5002408;28;20101;-62
2022/06/04 00:39:27;;;;;;;2.92;2.60;;;17.40;99.90;;;;;;5015863;28;20116;-61
2022/06/04 00:42:18;;;;;;;6.10;3.10;;;17.40;99.90;;;;;;5008736;28;20156;-60
2022/06/04 00:45:20;;;;;;;3.88;2.33;;;17.40;99.90;;;;;;4999215;28;20056;-61
2022/06/04 00:47:46;;;;;;;3.20;2.63;;;17.40;99.90;;;;;;5001894;28;20042;-61
2022/06/04 00:50:15;;;;;;;5.15;2.55;;;17.40;99.90;;;;;;4999270;28;20026;-61
2022/06/04 00:52:41;;;;;;;4.82;2.53;;;17.30;99.90;;;;;;5003645;28;20018;-60
2022/06/04 00:55:08;;;;;;;4.32;2.72;;;17.20;99.90;;;;;;5001097;28;20026;-60
2022/06/04 00:57:46;;;;;;;4.85;3.10;;;17.20;99.90;;;;;;5005644;28;20030;-61
2022/06/04 01:00:18;;;;;;;4.25;2.97;;;17.20;99.90;;;;;;5002508;28;20123;-60
2022/06/04 01:03:20;;;;;;;3.40;2.65;;;17.10;99.90;;;;;;5003857;28;20029;-61
2022/06/04 01:06:14;;;;;;;6.63;3.08;;;17.10;99.90;;;;;;4999356;28;20034;-61
2022/06/04 01:08:55;;;;;;;5.30;2.97;;;17.10;99.90;;;;;;5014282;28;20033;-61
2022/06/04 01:14:49;;;;;;;2.85;2.60;;;17.00;99.90;;;;;;5006818;28;20440;-60
2022/06/04 01:17:24;;;;;;;4.25;2.35;;;16.90;99.90;;;;;;4996587;28;20029;-61
2022/06/04 01:20:02;;;;;;;6.50;2.60;;;16.90;99.90;;;;;;5002860;28;20399;-61
2022/06/04 01:22:41;;;;;;;3.20;2.55;;;16.80;99.90;;;;;;5006055;28;20030;-61
2022/06/04 01:25:26;;;;;;;5.22;2.70;;;16.80;99.90;;;;;;5006725;28;20037;-60
2022/06/04 01:28:05;;;;;;;5.15;3.08;;;16.70;99.90;;;;;;5001048;28;20159;-61
2022/06/04 01:30:37;;;;;;;4.35;2.88;;;16.70;99.90;;;;;;5004092;28;20507;-61
2022/06/04 01:33:23;;;;;;;4.23;3.07;;;16.50;99.90;;;;;;5004011;28;20168;-60
2022/06/04 01:36:02;;;;;;;5.95;3.38;;;16.50;99.90;;;;;;5001546;28;20682;-61
2022/06/04 01:38:40;;;;;;;5.47;3.30;;;16.30;99.90;;;;;;5001964;28;20033;-61
2022/06/04 01:41:22;;;;;;;5.18;2.90;;;16.20;99.90;;;;;;4996334;28;20100;-60
2022/06/04 01:43:56;;;;;;;4.60;3.10;;;16.20;99.90;;;;;;5004132;28;20092;-61
2022/06/04 01:46:33;;;;;;;6.50;3.60;;;16.10;99.90;;;;;;4999814;28;20025;-61
2022/06/04 01:49:07;;;;;;;5.20;2.63;;;16.00;99.90;;;;;;4997197;28;20089;-61
2022/06/04 01:51:34;;;;;;;3.88;3.22;;;15.90;99.90;;;;;;5002935;28;20072;-60
2022/06/04 01:54:05;;;;;;;5.30;3.67;;;15.80;99.90;;;;;;5008985;28;20049;-61
2022/06/04 01:56:36;;;;;;;5.13;3.33;;;15.80;99.90;;;;;;5005334;28;20030;-61
2022/06/04 01:59:09;;;;;;;3.80;2.92;;;15.80;99.90;;;;;;5002939;28;20036;-61
2022/06/04 02:01:37;;;;;;;7.03;3.40;;;15.90;99.90;;;;;;5000021;28;20026;-61
2022/06/04 02:04:16;;;;;;;4.65;3.28;;;15.90;99.90;;;;;;5002850;28;20072;-61
2022/06/04 02:07:29;;;;;;;3.67;3.03;;;15.90;99.90;;;;;;4997132;28;20029;-61
2022/06/04 02:09:35;;;;;;;3.95;3.20;;;15.90;99.90;;;;;;5003703;28;20030;-61
2022/06/04 02:12:03;;;;;;;3.40;2.83;;;15.90;99.90;;;;;;5008813;28;20040;-60
2022/06/04 02:14:28;;;;;;;5.75;3.80;;;15.90;99.90;;;;;;5001921;28;20029;-59
2022/06/04 02:17:02;;;;;;;4.07;3.67;;;15.90;99.90;;;;;;5003328;28;20476;-60
2022/06/04 02:19:28;;;;;;;4.38;3.65;;;15.90;99.90;;;;;;5005317;28;20080;-61
2022/06/04 02:21:54;;;;;;;3.92;3.40;;;15.80;99.90;;;;;;5008408;28;20037;-61
2022/06/04 02:24:20;;;;;;;5.07;3.55;;;15.80;99.90;;;;;;5006093;28;20029;-60
2022/06/04 02:26:46;;;;;;;4.00;3.58;;;15.70;99.90;;;;;;5003738;28;20454;-60
2022/06/04 02:29:12;;;;;;;8.68;3.65;;;15.70;99.90;;;;;;4995505;28;20037;-61
2022/06/04 02:32:10;;;;;;;4.70;3.65;;;15.60;99.90;;;;;;5011944;28;20029;-61
2022/06/04 02:34:56;;;;;;;6.05;3.63;;;15.60;99.90;;;;;;4999040;28;20030;-61
2022/06/04 02:37:43;;;;;;;5.35;3.97;;;15.50;99.90;;;;;;5005966;28;20488;-61
2022/06/04 02:40:18;;;;;;;5.05;3.78;;;15.50;99.90;;;;;;5003298;28;20072;-60
2022/06/04 02:43:09;;;;;;;6.25;3.83;;;15.50;99.90;;;;;;5004483;28;20105;-60
2022/06/04 02:45:59;;;;;;;8.57;4.65;;;15.50;99.90;;;;;;5000140;28;20125;-61
2022/06/04 02:48:30;;;;;;;4.80;3.33;;;15.50;99.90;;;;;;5009375;28;20037;-61
2022/06/04 02:51:04;;;;;;;10.88;3.65;;;15.60;99.90;;;;;;5011538;28;20040;-61
2022/06/04 02:53:32;;;;;;;5.70;3.80;;;15.60;99.90;;;;;;4996779;28;20038;-61
2022/06/04 02:56:09;;;;;;;3.53;2.95;;;15.60;99.90;;;;;;5002945;28;20018;-60
2022/06/04 02:58:36;;;;;;;4.05;3.10;;;15.60;99.90;;;;;;5006695;28;20044;-61
2022/06/04 03:01:04;;;;;;;5.05;3.53;;;15.60;99.90;;;;;;5007251;28;20022;-61
2022/06/04 03:03:35;;;;;;;5.20;3.50;;;15.60;99.90;;;;;;5004339;28;20113;-59
2022/06/04 03:06:05;;;;;;;3.90;3.53;;;15.50;99.90;;;;;;5007825;28;20511;-60
2022/06/04 03:08:32;;;;;;;3.95;3.33;;;15.50;99.90;;;;;;5009580;28;20034;-62
2022/06/04 03:10:58;;;;;;;4.53;3.47;;;15.50;99.90;;;;;;5004444;28;20114;-62
2022/06/04 03:13:24;;;;;;;3.47;3.13;;;15.50;99.90;;;;;;5013057;28;20026;-60
2022/06/04 03:15:51;;;;;;;3.95;3.55;;;15.50;99.90;;;;;;4999950;28;20037;-61
2022/06/04 03:18:17;;;;;;;5.40;3.85;;;15.50;99.90;;;;;;5009672;28;20045;-62
2022/06/04 03:20:43;;;;;;;5.03;3.70;;;15.60;99.90;;;;;;5008828;28;20034;-62
2022/06/04 03:23:09;;;;;;;5.25;3.83;;;15.50;99.90;;;;;;5006771;28;20852;-62
2022/06/04 03:25:36;;;;;;;5.28;3.33;;;15.50;99.90;;;;;;5004749;28;20038;-62
2022/06/04 03:28:03;;;;;;;5.80;3.38;;;15.50;99.90;;;;;;5006387;28;20034;-61
2022/06/04 03:30:29;;;;;;;7.80;3.35;;;15.50;99.90;;;;;;5007116;28;20037;-61
2022/06/04 03:32:55;;;;;;;6.15;3.88;;;15.50;99.90;;;;;;5011226;28;20030;-61
2022/06/04 03:35:21;;;;;;;5.93;3.40;;;15.50;99.90;;;;;;5027390;22;20045;-59
2022/06/04 03:37:47;;;;;;;5.25;3.30;;;15.50;99.90;;;;;;5008591;28;20032;-60
2022/06/04 03:40:13;;;;;;;9.32;3.78;;;15.40;99.90;;;;;;5010708;28;20124;-56
2022/06/04 03:42:39;;;;;;;4.05;3.53;;;15.50;99.90;;;;;;5015315;23;20038;-56
2022/06/04 03:45:06;;;;;;;5.30;3.90;;;15.50;99.90;;;;;;5005596;28;20161;-50
2022/06/04 03:47:38;;;;;;;4.53;4.10;;;15.50;99.90;;;;;;5008754;28;20028;-60
2022/06/04 03:50:15;;;;;;;6.30;3.33;;;15.50;99.90;;;;;;5009654;28;20041;-59
2022/06/04 03:52:41;;;;;;;4.25;3.55;;;15.60;99.90;;;;;;5005832;28;20022;-56
2022/06/04 03:55:08;;;;;;;4.63;3.33;;;15.60;99.90;;;;;;5003122;28;20053;-58
2022/06/04 03:57:39;;;;;;;4.00;3.17;;;15.60;99.90;;;;;;5008505;28;20068;-59
2022/06/04 04:00:07;;;;;;;3.72;3.15;;;15.60;99.90;;;;;;5020659;28;20465;-58
2022/06/04 04:02:33;;;;;;;6.15;3.30;;;15.70;99.90;;;;;;5010457;28;20467;-58
2022/06/04 04:04:59;;;;;;;4.60;3.95;;;15.70;99.90;;;;;;5009780;28;20515;-57
2022/06/04 04:07:25;;;;;;;3.78;3.35;;;15.70;99.90;;;;;;5009807;28;20053;-58
2022/06/04 04:09:51;;;;;;;5.60;4.18;;;15.80;99.90;;;;;;5005716;28;20431;-58
2022/06/04 04:12:16;;;;;;;6.85;3.35;;;15.80;99.90;;;;;;5008517;28;20036;-57
2022/06/04 04:14:42;;;;;;;5.50;3.50;;;15.80;99.90;;;;;;5010171;28;20123;-57
2022/06/04 04:17:09;;;;;;;5.05;3.33;;;15.80;99.90;;;;;;5008795;28;20560;-59
2022/06/04 04:19:35;;;;;;;3.60;3.28;;;15.80;99.90;;;;;;5008581;28;20026;-58
2022/06/04 04:22:00;;;;;;;4.55;3.35;;;15.90;99.90;;;;;;5009341;28;20041;-57
2022/06/04 04:24:26;;;;;;;6.18;3.22;;;15.90;99.90;;;;;;5010136;28;20081;-57
2022/06/04 04:26:52;;;;;;;4.10;3.65;;;16.00;99.90;;;;;;5007426;28;20034;-59
2022/06/04 04:29:17;;;;;;;3.40;3.03;;;16.10;99.90;;;;;;5002712;28;20435;-59
2022/06/04 04:31:43;;;;;;;3.50;2.83;;;16.30;99.90;;;;;;5010931;28;20498;-60
2022/06/04 04:34:09;;;;;;;4.13;3.35;;;16.50;99.90;;;;;;5010852;28;20419;-60
2022/06/04 04:36:34;;;;;;;4.00;3.05;;;16.80;99.90;;;;;;5009074;28;20029;-57
2022/06/04 04:39:00;;;;;;;4.55;3.60;;;16.90;99.90;;;;;;5010201;28;20029;-58
2022/06/04 04:41:26;;;;;;;6.93;3.17;;;17.10;99.90;;;;;;5009675;28;20030;-58
2022/06/04 04:43:52;;;;;;;3.25;2.92;;;17.60;99.90;;;;;;5010925;28;20438;-59
2022/06/04 04:46:19;;;;;;;4.47;3.60;;;18.00;99.90;;;;;;5010226;28;20380;-57
2022/06/04 04:48:47;;;;;;;4.03;3.25;;;18.00;99.90;;;;;;5009569;28;20105;-58
2022/06/04 04:51:18;;;;;;;3.80;3.28;;;17.80;99.90;;;;;;5009799;28;20614;-58
2022/06/04 04:53:44;;;;;;;6.63;3.05;;;17.90;99.90;;;;;;5009214;28;20060;-58
2022/06/04 04:56:11;;;;;;;5.20;3.70;;;18.10;99.90;;;;;;5009466;28;20045;-59
2022/06/04 04:58:37;;;;;;;6.53;4.00;;;18.10;99.90;;;;;;5002262;28;20021;-60
2022/06/04 05:01:03;;;;;;;4.88;3.25;;;18.00;99.90;;;;;;5006735;28;20116;-60
2022/06/04 05:03:29;;;;;;;4.22;3.38;;;18.00;99.90;;;;;;4999780;28;20100;-58
2022/06/04 05:06:03;;;;;;;3.80;3.25;;;18.50;99.90;;;;;;5000619;28;20495;-60
2022/06/04 05:08:30;;;;;;;6.30;3.53;;;19.20;99.90;;;;;;5009871;28;20025;-50
2022/06/04 05:10:55;;;;;;;4.95;3.50;;;19.90;99.90;;;;;;5009434;28;20029;-60
2022/06/04 05:13:21;;;;;;;3.35;2.70;;;20.40;96.90;;;;;;5009026;28;20029;-60
2022/06/04 05:15:47;;;;;;;5.65;2.60;;;20.60;96.40;;;;;;5005896;28;20041;-60
2022/06/04 05:18:12;;;;;;;2.97;2.55;;;21.00;95.50;;;;;;5006425;28;20076;-60
2022/06/04 05:20:41;;;;;;;3.38;2.55;;;21.30;95.00;;;;;;5007974;28;20492;-57
2022/06/04 05:23:06;;;;;;;2.97;2.53;;;21.20;94.80;;;;;;5009694;28;20026;-58
2022/06/04 05:25:32;;;;;;;4.03;2.80;;;21.00;94.80;;;;;;5007905;28;20034;-59
2022/06/04 05:27:58;;;;;;;4.32;2.05;;;21.20;94.60;;;;;;5005979;28;20036;-59
2022/06/04 05:30:24;;;;;;;5.72;2.50;;;22.10;93.70;;;;;;5009478;28;20030;-62
2022/06/04 05:32:49;;;;;;;2.72;2.22;;;22.80;92.30;;;;;;5006043;28;20014;-59
2022/06/04 05:35:15;;;;;;;2.70;2.38;;;23.70;91.30;;;;;;5007598;28;20026;-59
2022/06/04 05:37:41;;;;;;;2.85;1.90;;;24.20;89.90;;;;;;5005938;28;20023;-58
2022/06/04 05:40:07;;;;;;;3.88;2.08;;;24.20;89.70;;;;;;5006062;28;20811;-59
2022/06/04 05:42:33;;;;;;;2.20;1.88;;;23.60;88.40;;;;;;5008317;28;20038;-55
2022/06/04 05:44:59;;;;;;;2.83;2.00;;;23.70;90.10;;;;;;5009421;28;20173;-58
2022/06/04 05:47:26;;;;;;;3.00;2.40;;;23.10;91.10;;;;;;5010474;28;20076;-59
2022/06/04 05:49:51;;;;;;;6.57;3.03;;;22.80;91.20;;;;;;5007659;28;20040;-60
2022/06/04 05:52:17;;;;;;;3.92;2.25;;;23.10;91.60;;;;;;5008829;28;20114;-60
2022/06/04 05:54:42;;;;;;;4.68;2.22;;;23.10;91.40;;;;;;5001308;28;20022;-58
2022/06/04 05:57:08;;;;;;;4.40;2.55;;;24.00;90.10;;;;;;5008660;28;20619;-58
2022/06/04 05:59:34;;;;;;;4.68;2.83;;;24.40;88.50;;;;;;5009808;28;20029;-59
2022/06/04 06:02:00;;;;;;;5.82;2.20;;;24.70;88.10;;;;;;5008739;28;20050;-60
2022/06/04 06:04:26;;;;;;;4.72;2.15;;;24.80;87.10;;;;;;5009024;28;20377;-59
2022/06/04 06:06:52;;;;;;;4.13;2.63;;;24.60;86.60;;;;;;5009243;28;20068;-61
2022/06/04 06:09:22;;;;;;;3.47;2.47;;;23.30;88.90;;;;;;5012783;28;20542;-60
2022/06/04 06:11:48;;;;;;;3.53;2.95;;;23.00;90.90;;;;;;5009001;28;20407;-60
2022/06/04 06:14:14;;;;;;;3.45;2.50;;;22.50;91.60;;;;;;5010411;28;20113;-57
2022/06/04 06:16:47;;;;;;;4.05;2.63;;;22.40;91.80;;;;;;5011565;28;20097;-58
2022/06/04 06:19:14;;;;;;;4.95;2.83;;;22.00;92.10;;;;;;5010135;28;20040;-60
2022/06/04 06:21:41;;;;;;;9.63;3.08;;;22.30;92.20;;;;;;5006160;28;20026;-59
2022/06/04 06:24:08;;;;;;;4.22;2.90;;;21.90;92.10;;;;;;5005297;28;20044;-57
2022/06/04 06:26:44;;;;;;;3.25;2.58;;;22.00;92.50;;;;;;4999465;28;20535;-59
2022/06/04 06:29:10;;;;;;;4.93;2.75;;;22.10;91.90;;;;;;5015224;28;20113;-59
2022/06/04 06:31:36;;;;;;;4.47;2.50;;;22.10;92.00;;;;;;5013618;28;20101;-60
2022/06/04 06:34:02;;;;;;;4.30;3.05;;;21.80;92.50;;;;;;5016456;28;20029;-57
2022/06/04 06:36:28;;;;;;;3.85;2.70;;;22.00;92.20;;;;;;5011834;28;20041;-58
2022/06/04 06:38:54;;;;;;;3.80;2.53;;;22.00;91.70;;;;;;5010449;28;20399;-57
2022/06/04 06:41:23;;;;;;;5.20;2.33;;;22.00;91.70;;;;;;5012367;28;20065;-60
2022/06/04 06:43:50;;;;;;;4.22;2.63;;;22.00;91.90;;;;;;5012742;28;20499;-59
2022/06/04 06:46:26;;;;;;;2.90;2.30;;;22.40;91.30;;;;;;5013191;28;20034;-58
2022/06/04 06:48:55;;;;;;;4.22;2.40;;;22.50;91.30;;;;;;5012728;28;20105;-60
2022/06/04 06:51:25;;;;;;;4.78;2.65;;;22.90;90.60;;;;;;5017981;28;20033;-60
2022/06/04 06:53:54;;;;;;;3.92;2.85;;;23.00;90.70;;;;;;5021781;28;20759;-59
2022/06/04 06:56:23;;;;;;;3.97;2.45;;;23.00;90.20;;;;;;5015555;28;20022;-59
2022/06/04 06:58:49;;;;;;;2.72;2.47;;;23.00;90.30;;;;;;5012693;28;20057;-58
2022/06/04 07:01:15;;;;;;;3.13;2.45;;;23.30;90.50;;;;;;4985136;28;20046;-60
2022/06/04 07:03:42;;;;;;;4.60;2.42;;;23.40;90.30;;;;;;5011531;28;20036;-60
2022/06/04 07:06:10;;;;;;;4.38;2.63;;;23.70;89.70;;;;;;5011026;28;20060;-60
2022/06/04 07:08:37;;;;;;;4.68;2.40;;;23.60;89.60;;;;;;5012378;28;20034;-59
2022/06/04 07:11:03;;;;;;;8.07;3.03;;;24.00;89.50;;;;;;5014544;28;20156;-57
2022/06/04 07:13:29;;;;;;;4.90;2.60;;;24.60;88.80;;;;;;5012134;28;20470;-58
2022/06/04 07:15:55;;;;;;;5.22;2.55;;;24.60;87.40;;;;;;5011235;28;20110;-60
2022/06/04 07:18:21;;;;;;;6.57;2.40;;;24.60;86.80;;;;;;5010974;28;20492;-60
2022/06/04 07:20:47;;;;;;;5.40;2.30;;;24.50;86.60;;;;;;5012186;28;20037;-60
2022/06/04 07:23:13;;;;;;;4.00;2.13;;;25.10;84.80;;;;;;5018149;28;20034;-59
2022/06/04 07:25:41;;;;;;;2.80;2.13;;;25.40;84.90;;;;;;5012291;28;20601;-58
2022/06/04 07:28:09;;;;;;;6.72;3.00;;;25.50;83.90;;;;;;5014551;28;20177;-59
2022/06/04 07:30:36;;;;;;;5.80;2.58;;;25.60;83.80;;;;;;5009009;28;20368;-59
2022/06/04 07:33:01;;;;;;;11.52;3.72;;;25.70;82.40;;;;;;5011333;28;20025;-61
2022/06/04 07:35:27;;;;;;;5.07;2.13;;;25.70;82.00;;;;;;5011377;28;20055;-61
2022/06/04 07:37:53;;;;;;;3.53;2.30;;;26.50;81.30;;;;;;5011990;28;20427;-62
2022/06/04 07:40:19;;;;;;;4.13;2.20;;;26.50;82.00;;;;;;5008691;28;20116;-58
2022/06/04 07:42:48;;;;;;;7.00;2.25;;;27.20;80.50;;;;;;5011592;28;20057;-58
2022/06/04 07:45:13;;;;;;;2.38;1.95;;;26.70;81.00;;;;;;5010360;28;20046;-59
2022/06/04 07:47:41;;;;;;;12.00;2.40;;;26.50;82.80;;;;;;5010480;28;20041;-58
2022/06/04 07:50:09;;;;;;;5.03;2.92;;;26.70;81.60;;;;;;5011469;28;20037;-58
2022/06/04 07:52:37;;;;;;;7.68;2.78;;;26.00;81.30;;;;;;5018063;28;20105;-55
2022/06/04 07:55:06;;;;;;;7.00;2.33;;;26.40;82.70;;;;;;5003743;28;20030;-59
2022/06/04 07:57:32;;;;;;;9.05;2.95;;;25.90;81.50;;;;;;5010665;28;20022;-60
2022/06/04 07:59:58;;;;;;;3.20;2.13;;;25.40;82.80;;;;;;4994581;28;20052;-57
2022/06/04 08:02:25;;;;;;;3.55;2.75;;;25.50;83.20;;;;;;5010595;28;20037;-55
2022/06/04 08:04:53;;;;;;;5.00;2.40;;;25.10;84.80;;;;;;5010808;28;20492;-56
2022/06/04 08:07:24;;;;;;;2.63;2.42;;;25.40;84.60;;;;;;5009261;28;20121;-55
2022/06/04 08:09:50;;;;;;;2.85;2.45;;;25.90;83.20;;;;;;5012530;28;20407;-55
2022/06/04 08:12:17;;;;;;;3.30;2.17;;;26.40;84.00;;;;;;5008629;28;20487;-58
2022/06/04 08:14:43;;;;;;;2.50;2.03;;;27.20;81.60;;;;;;5008868;28;20029;-55
2022/06/04 08:17:10;;;;;;;2.58;2.10;;;28.00;79.50;;;;;;5011125;28;20033;-57
2022/06/04 08:19:37;;;;;;;2.78;2.50;;;27.60;79.40;;;;;;5010110;28;20563;-60
2022/06/04 08:22:04;;;;;;;5.35;2.33;;;28.00;80.30;;;;;;5010218;28;20395;-60
2022/06/04 08:24:31;;;;;;;3.80;2.47;;;27.90;81.00;;;;;;5003314;28;20104;-53
2022/06/04 08:26:58;;;;;;;4.82;2.38;;;28.10;79.20;;;;;;5009152;28;20045;-56
2022/06/04 08:29:30;;;;;;;7.97;2.63;;;27.60;79.70;;;;;;5009035;28;20076;-58
2022/06/04 08:31:56;;;;;;;4.57;2.38;;;27.50;79.80;;;;;;5004782;28;20026;-61
2022/06/04 08:34:22;;;;;;;3.88;2.53;;;27.90;79.10;;;;;;5008255;28;20098;-59
2022/06/04 08:36:48;;;;;;;3.55;2.25;;;27.50;79.60;;;;;;5008816;28;20033;-57
2022/06/04 08:39:14;;;;;;;7.80;3.10;;;27.30;80.10;;;;;;5008940;28;20479;-62
2022/06/04 08:42:06;;;;;;;6.95;3.05;;;26.90;81.10;;;;;;5009494;28;20037;-60
2022/06/04 08:44:39;;;;;;;5.00;2.92;;;27.20;81.10;;;;;;5005460;28;20084;-60
2022/06/04 08:47:26;;;;;;;6.07;2.45;;;27.70;80.10;;;;;;5009980;28;20092;-57
2022/06/04 08:50:18;;;;;;;4.25;2.53;;;28.70;78.40;;;;;;5009159;28;20045;-58
2022/06/04 08:52:45;;;;;;;4.07;2.38;;;28.60;78.10;;;;;;5007445;28;20103;-58
2022/06/04 08:58:44;;;;;;;6.05;2.72;;;29.70;74.20;;;;;;5011536;28;20060;-61
2022/06/04 09:01:27;;;;;;;4.22;2.80;;;28.50;76.50;;;;;;4990246;28;20466;-58
2022/06/04 09:04:29;;;;;;;4.78;2.45;;;28.60;76.50;;;;;;5008496;28;20560;-61
2022/06/04 09:07:02;;;;;;;3.63;2.40;;;29.60;75.50;;;;;;5003886;28;20049;-60
2022/06/04 09:09:52;;;;;;;3.05;2.42;;;30.70;72.70;;;;;;5010266;28;20036;-58
2022/06/04 09:12:34;;;;;;;4.65;3.00;;;31.10;71.60;;;;;;5005744;28;20026;-61
2022/06/04 09:15:00;;;;;;;4.88;2.65;;;31.40;71.10;;;;;;5005708;28;20025;-60
2022/06/04 09:17:34;;;;;;;4.90;2.60;;;31.60;69.90;;;;;;5008422;28;20026;-59
2022/06/04 09:19:59;;;;;;;2.55;2.10;;;31.30;69.30;;;;;;5006896;28;20037;-57
2022/06/04 09:22:38;;;;;;;3.67;2.38;;;31.10;70.60;;;;;;5014152;28;20502;-59
2022/06/04 09:25:04;;;;;;;7.28;2.80;;;32.10;69.60;;;;;;5008872;28;20698;-59
2022/06/04 09:27:37;;;;;;;5.28;2.50;;;31.50;67.90;;;;;;5017227;28;20038;-60
2022/06/04 09:30:25;;;;;;;3.25;2.22;;;31.20;69.70;;;;;;5008315;28;20041;-59
2022/06/04 09:33:18;;;;;;;7.05;2.65;;;32.00;68.70;;;;;;5008566;28;20109;-59
2022/06/04 09:35:44;;;;;;;4.75;2.50;;;32.40;67.70;;;;;;5005469;28;20033;-57
2022/06/04 09:38:29;;;;;;;4.47;2.60;;;32.10;67.50;;;;;;5003514;28;20080;-56
2022/06/04 09:40:58;;;;;;;3.53;2.67;;;32.40;66.60;;;;;;5039114;28;20088;-58
2022/06/04 09:43:24;;;;;;;3.25;2.55;;;31.10;68.10;;;;;;5023363;28;20099;-58
2022/06/04 09:45:52;;;;;;;4.07;2.50;;;30.30;69.00;;;;;;5005846;28;20044;-58
2022/06/04 09:48:24;;;;;;;3.33;2.83;;;29.60;69.90;;;;;;5009053;28;20030;-59
2022/06/04 09:51:00;;;;;;;6.72;2.80;;;28.70;72.00;;;;;;5009144;28;20056;-61
2022/06/04 09:53:29;;;;;;;4.28;2.85;;;29.10;72.70;;;;;;5006870;28;20041;-61
2022/06/04 09:56:06;;;;;;;4.72;2.75;;;29.10;72.20;;;;;;5001917;28;20537;-58
2022/06/04 09:58:35;;;;;;;3.25;2.80;;;29.70;73.50;;;;;;5008764;28;20542;-58
2022/06/04 10:01:03;;;;;;;5.43;2.83;;;29.60;72.60;;;;;;4983318;28;20077;-60
2022/06/04 10:03:36;;;;;;;6.90;2.67;;;30.30;70.90;;;;;;4987290;28;20084;-59
2022/06/04 10:06:08;;;;;;;3.70;2.70;;;29.50;72.10;;;;;;4977722;28;20029;-61
2022/06/04 10:11:24;;;;;;;4.00;2.92;;;29.30;74.90;;;;;;4978531;28;20506;-59
2022/06/04 10:13:53;;;;;;;3.25;2.95;;;29.80;72.60;;;;;;4992313;28;20118;-53
2022/06/04 10:16:20;;;;;;;2.78;2.58;;;29.80;71.80;;;;;;4989346;28;20117;-60
2022/06/04 10:18:55;;;;;;;6.13;3.05;;;29.80;71.90;;;;;;4990658;28;20516;-60
2022/06/04 10:21:30;;;;;;;4.18;2.67;;;30.10;71.50;;;;;;4986843;28;20050;-59
2022/06/04 10:23:58;;;;;;;7.32;2.90;;;30.00;72.00;;;;;;4991813;28;20053;-54
2022/06/04 10:26:41;;;;;;;2.97;2.45;;;30.10;72.50;;;;;;4985762;28;20105;-57
2022/06/04 10:29:19;;;;;;;4.57;3.15;;;29.80;74.00;;;;;;4991127;28;20050;-59
2022/06/04 10:32:19;;;;;;;5.07;3.00;;;29.60;73.30;;;;;;4992642;28;20022;-58
2022/06/04 10:34:57;;;;;;;2.78;2.58;;;29.50;74.60;;;;;;4988648;28;20034;-60
2022/06/04 10:37:41;;;;;;;5.32;3.92;;;29.20;75.70;;;;;;4991965;28;20022;-59
2022/06/04 10:40:25;;;;;;;5.68;3.15;;;29.20;74.30;;;;;;4989636;28;20077;-57
2022/06/04 10:43:23;;;;;;;4.90;3.15;;;29.00;74.80;;;;;;4992829;28;20073;-58
2022/06/04 10:46:17;;;;;;;3.58;3.20;;;28.50;74.70;;;;;;4990160;28;20515;-59
2022/06/04 10:49:10;;;;;;;6.53;3.08;;;28.90;76.10;;;;;;4990690;28;20484;-60
2022/06/04 10:52:01;;;;;;;5.00;3.10;;;29.20;75.20;;;;;;4989813;28;20045;-59
2022/06/04 10:55:08;;;;;;;4.28;2.63;;;28.80;75.80;;;;;;4989565;28;20065;-60
2022/06/04 10:57:47;;;;;;;3.90;2.88;;;29.00;75.20;;;;;;4992212;28;20031;-58
2022/06/04 11:00:18;;;;;;;5.15;2.88;;;29.40;75.40;;;;;;4991144;28;20089;-59
2022/06/04 11:03:06;;;;;;;6.32;3.20;;;29.50;74.80;;;;;;4994620;28;20161;-59
2022/06/04 11:05:40;;;;;;;3.03;2.75;;;29.50;74.20;;;;;;5011781;28;20033;-60
2022/06/04 11:08:30;;;;;;;6.40;2.95;;;29.50;74.30;;;;;;5011539;28;20030;-59
2022/06/04 11:11:08;;;;;;;5.88;3.28;;;29.50;74.50;;;;;;5003083;28;20608;-59
2022/06/04 11:13:52;;;;;;;11.77;3.67;;;28.70;75.30;;;;;;4999304;28;20018;-59
2022/06/04 11:16:31;;;;;;;4.07;3.00;;;28.70;75.70;;;;;;5001527;28;20022;-60
2022/06/04 11:19:24;;;;;;;5.75;3.03;;;28.70;77.80;;;;;;5004151;28;20045;-61
2022/06/04 11:21:56;;;;;;;3.67;3.28;;;28.40;78.00;;;;;;5006189;28;20037;-60
2022/06/04 11:24:37;;;;;;;8.55;3.90;;;28.20;78.70;;;;;;5015095;28;20042;-61
2022/06/04 11:27:22;;;;;;;4.93;3.42;;;28.70;78.70;;;;;;5011707;28;20084;-61
2022/06/04 11:29:50;;;;;;;3.25;2.95;;;28.60;78.10;;;;;;5009437;28;20066;-58
2022/06/04 11:32:37;;;;;;;5.13;3.28;;;28.90;78.70;;;;;;5006216;28;20036;-58
2022/06/04 11:35:33;;;;;;;5.25;3.05;;;29.10;76.10;;;;;;5013615;28;20092;-60
2022/06/04 11:38:33;;;;;;;7.10;3.20;;;28.70;76.20;;;;;;5013417;28;20018;-59
2022/06/04 11:41:04;;;;;;;4.15;2.90;;;28.60;76.70;;;;;;4994092;28;20055;-61
2022/06/04 11:43:30;;;;;;;6.45;3.42;;;28.60;78.30;;;;;;5012157;28;20467;-61
2022/06/04 11:46:32;;;;;;;6.72;3.20;;;28.50;78.50;;;;;;5010868;28;20061;-57
2022/06/04 11:49:27;;;;;;;5.10;3.13;;;28.60;76.80;;;;;;5006870;28;20482;-61
2022/06/04 11:51:56;;;;;;;3.50;3.10;;;28.20;77.70;;;;;;4974419;28;20563;-62
2022/06/04 11:54:40;;;;;;;6.30;3.60;;;28.00;79.90;;;;;;5013774;28;20042;-59
2022/06/04 11:57:22;;;;;;;5.97;3.17;;;28.10;79.00;;;;;;5013612;28;20119;-60
2022/06/04 12:00:28;;;;;;;4.80;3.40;;;27.90;80.10;;;;;;5011040;28;20044;-57
2022/06/04 12:03:20;;;;;;;5.22;3.22;;;27.80;81.60;;;;;;4994605;28;20132;-60
2022/06/04 12:06:06;;;;;;;6.67;3.53;;;28.30;79.80;;;;;;5009868;28;20120;-59
2022/06/04 12:08:41;;;;;;;5.13;3.05;;;28.60;78.90;;;;;;5012060;28;20106;-52
2022/06/04 12:11:25;;;;;;;11.55;3.88;;;28.90;79.40;;;;;;5009103;28;20084;-58
2022/06/04 12:14:03;;;;;;;3.58;3.05;;;29.00;79.10;;;;;;5010706;28;20033;-60
2022/06/04 12:16:34;;;;;;;5.70;3.35;;;28.80;80.00;;;;;;5009877;28;20491;-59
2022/06/04 12:25:10;;;;;;;5.45;3.00;;;28.80;77.50;;;;;;5007101;28;20073;-61
2022/06/04 12:27:52;;;;;;;6.20;2.58;;;29.10;79.20;;;;;;5014324;28;20049;-60
2022/06/04 12:30:30;;;;;;;5.32;2.60;;;29.60;78.30;;;;;;5011291;28;20022;-59
2022/06/04 12:32:56;;;;;;;4.00;2.35;;;29.70;77.70;;;;;;5011244;28;20048;-60
2022/06/04 12:35:23;;;;;;;2.72;2.53;;;29.40;77.10;;;;;;5006669;28;20022;-59
2022/06/04 12:37:58;;;;;;;5.22;2.95;;;29.30;77.30;;;;;;5005025;28;20028;-60
2022/06/04 12:40:24;;;;;;;3.05;2.70;;;29.40;77.30;;;;;;5005438;28;20065;-60
2022/06/04 12:43:13;;;;;;;4.15;2.88;;;29.40;78.00;;;;;;5010982;28;20065;-61
2022/06/04 12:45:40;;;;;;;4.90;2.85;;;28.90;76.70;;;;;;5008470;28;20111;-60
2022/06/04 12:48:35;;;;;;;4.68;2.90;;;29.00;76.70;;;;;;5010682;28;20030;-60
2022/06/04 12:51:17;;;;;;;4.00;2.78;;;28.50;77.70;;;;;;5005298;28;20168;-61
2022/06/04 12:54:00;;;;;;;6.20;3.03;;;28.30;77.60;;;;;;5010345;28;20022;-59
2022/06/04 12:56:31;;;;;;;4.07;2.87;;;28.00;78.20;;;;;;5007517;28;20030;-58
2022/06/04 12:58:59;;;;;;;6.18;3.00;;;28.30;79.20;;;;;;5008974;28;20026;-60
2022/06/04 13:01:37;;;;;;;5.18;2.50;;;28.40;79.30;;;;;;4992858;28;20042;-58
2022/06/04 13:04:34;;;;;;;4.90;3.03;;;28.40;79.70;;;;;;5000672;28;20510;-59
2022/06/04 13:07:17;;;;;;;3.65;2.83;;;28.00;80.50;;;;;;5009458;28;20092;-59
2022/06/04 13:10:00;;;;;;;4.30;2.83;;;27.50;81.30;;;;;;5003868;28;20491;-59
2022/06/04 13:12:28;;;;;;;;;;;27.60;81.90;;;;;;5010139;28;20068;-61
2022/06/04 13:15:21;;;;;;;5.85;3.50;;;27.50;81.70;;;;;;5011282;28;19922;-60
2022/06/04 13:17:49;;;;;;;4.53;3.17;;;27.60;80.50;;;;;;5003723;28;20022;-61
2022/06/04 13:20:23;;;;;;;4.95;3.15;;;27.30;82.20;;;;;;5009824;28;20029;-60
2022/06/04 13:22:55;;;;;;;4.95;3.00;;;27.50;81.30;;;;;;5010816;28;20020;-61
2022/06/04 13:25:35;;;;;;;4.32;3.13;;;27.40;81.30;;;;;;5009871;28;20026;-60
2022/06/04 13:28:01;;;;;;;5.95;2.83;;;27.30;80.00;;;;;;5008425;28;20030;-60
2022/06/04 13:30:34;;;;;;;3.42;3.00;;;27.40;79.60;;;;;;5006243;28;20029;-56
2022/06/04 13:33:07;;;;;;;4.78;3.42;;;27.60;81.30;;;;;;5005146;28;20029;-61
2022/06/04 13:35:48;;;;;;;4.60;2.50;;;27.70;79.30;;;;;;5004211;28;20522;-59
2022/06/04 13:38:29;;;;;;;5.00;3.22;;;27.60;78.60;;;;;;5010889;28;20877;-60